createdAt,value
2023-05-24T00:00:31.298Z,29.16
2023-05-24T00:03:03.457Z,29.12
2023-05-24T00:05:33.862Z,29.12
2023-05-24T00:08:04.240Z,29.11
2023-05-24T00:10:36.101Z,29.12
2023-05-24T00:13:08.976Z,29.11
2023-05-24T00:15:44.958Z,29.12
2023-05-24T00:18:21.582Z,29.12
2023-05-24T00:20:58.354Z,29.12
2023-05-24T00:23:30.746Z,29.14
2023-05-24T00:26:07.405Z,29.14
2023-05-24T00:28:38.786Z,29.15
2023-05-24T00:31:11.359Z,29.17
2023-05-24T00:33:41.803Z,29.16
2023-05-24T00:36:12.140Z,29.18
2023-05-24T00:38:42.302Z,29.17
2023-05-24T00:41:12.908Z,29.18
2023-05-24T00:43:43.740Z,29.17
2023-05-24T00:46:23.842Z,29.17
2023-05-24T00:48:54.951Z,29.17
2023-05-24T00:51:26.884Z,29.17
2023-05-24T00:53:58.491Z,29.16
2023-05-24T00:56:29.856Z,29.16
2023-05-24T00:59:00.665Z,29.17
2023-05-24T01:01:33.322Z,29.16
2023-05-24T01:04:04.484Z,29.16
2023-05-24T01:06:46.615Z,29.16
2023-05-24T01:09:31.819Z,29.15
2023-05-24T01:12:19.740Z,29.15
2023-05-24T01:15:07.347Z,29.14
2023-05-24T01:17:52.552Z,29.13
2023-05-24T01:20:26.690Z,29.12
2023-05-24T01:23:21.559Z,29.11
2023-05-24T01:26:21.557Z,29.10
2023-05-24T01:28:56.166Z,29.07
2023-05-24T01:31:27.854Z,29.06
2023-05-24T01:33:58.458Z,29.05
2023-05-24T01:36:28.660Z,29.05
2023-05-24T01:38:59.192Z,29.05
2023-05-24T01:41:42.675Z,29.06
2023-05-24T01:44:29.787Z,29.05
2023-05-24T01:47:13.345Z,29.01
2023-05-24T01:49:52.901Z,28.99
2023-05-24T01:52:26.397Z,28.98
2023-05-24T01:54:59.493Z,28.98
2023-05-24T01:57:31.610Z,28.98
2023-05-24T02:00:07.038Z,28.99
2023-05-24T02:02:37.958Z,28.97
2023-05-24T02:05:09.253Z,28.96
2023-05-24T02:07:39.669Z,28.96
2023-05-24T02:10:11.798Z,28.96
2023-05-24T02:12:42.336Z,28.96
2023-05-24T02:15:16.345Z,28.95
2023-05-24T02:17:46.787Z,28.94
2023-05-24T02:20:17.746Z,28.94
2023-05-24T02:22:48.398Z,28.93
2023-05-24T02:25:19.222Z,28.92
2023-05-24T02:27:49.875Z,28.92
2023-05-24T02:30:22.284Z,28.93
2023-05-24T02:32:52.705Z,28.91
2023-05-24T02:35:23.660Z,28.91
2023-05-24T02:37:53.856Z,28.91
2023-05-24T02:40:24.376Z,28.89
2023-05-24T02:42:53.883Z,28.90
2023-05-24T02:45:26.466Z,28.90
2023-05-24T02:47:56.808Z,28.89
2023-05-24T02:50:27.228Z,28.88
2023-05-24T02:52:57.557Z,28.87
2023-05-24T02:55:29.722Z,28.86
2023-05-24T02:58:00.102Z,28.87
2023-05-24T03:00:31.874Z,28.87
2023-05-24T03:03:03.685Z,28.86
2023-05-24T03:05:34.056Z,28.85
2023-05-24T03:08:04.661Z,28.86
2023-05-24T03:10:35.072Z,28.86
2023-05-24T03:13:05.329Z,28.85
2023-05-24T03:15:37.668Z,28.85
2023-05-24T03:18:07.870Z,28.84
2023-05-24T03:20:38.045Z,28.84
2023-05-24T03:23:10.075Z,28.84
2023-05-24T03:25:40.220Z,28.84
2023-05-24T03:28:11.099Z,28.85
2023-05-24T03:30:44.201Z,28.86
2023-05-24T03:33:17.043Z,28.86
2023-05-24T03:35:47.832Z,28.87
2023-05-24T03:38:18.533Z,28.87
2023-05-24T03:40:48.474Z,28.90
2023-05-24T03:43:19.381Z,28.92
2023-05-24T03:45:50.998Z,28.93
2023-05-24T03:48:21.310Z,28.95
2023-05-24T03:50:51.719Z,28.98
2023-05-24T03:53:23.330Z,29.00
2023-05-24T03:55:53.326Z,29.03
2023-05-24T03:58:23.309Z,29.05
2023-05-24T04:00:55.967Z,29.08
2023-05-24T04:03:26.530Z,29.10
2023-05-24T04:05:57.413Z,29.13
2023-05-24T04:08:27.926Z,29.15
2023-05-24T04:10:57.915Z,29.17
2023-05-24T04:13:28.339Z,29.19
2023-05-24T04:16:15.750Z,29.20
2023-05-24T04:18:46.333Z,29.21
2023-05-24T04:21:17.241Z,29.25
2023-05-24T04:23:47.976Z,29.28
2023-05-24T04:26:18.289Z,29.30
2023-05-24T04:28:48.971Z,29.34
2023-05-24T04:31:21.620Z,29.35
2023-05-24T04:33:54.454Z,29.37
2023-05-24T04:36:29.246Z,29.41
2023-05-24T04:39:05.284Z,29.44
2023-05-24T04:41:36.350Z,29.47
2023-05-24T04:44:07.978Z,29.52
2023-05-24T04:46:40.528Z,29.54
2023-05-24T04:49:11.416Z,29.58
2023-05-24T04:51:41.758Z,29.65
2023-05-24T04:54:11.883Z,29.68
2023-05-24T04:56:42.369Z,29.73
2023-05-24T04:59:12.872Z,29.77
2023-05-24T05:01:45.284Z,29.81
2023-05-24T05:04:15.115Z,29.84
2023-05-24T05:06:47.059Z,29.88
2023-05-24T05:09:17.706Z,29.93
2023-05-24T05:11:49.449Z,29.98
2023-05-24T05:14:19.692Z,30.04
2023-05-24T05:16:51.761Z,30.10
2023-05-24T05:19:29.209Z,30.16
2023-05-24T05:21:59.760Z,30.21
2023-05-24T05:24:33.557Z,30.26
2023-05-24T05:27:07.571Z,30.30
2023-05-24T05:29:37.769Z,30.36
2023-05-24T05:32:11.774Z,30.42
2023-05-24T05:34:41.805Z,30.45
2023-05-24T05:37:12.322Z,30.51
2023-05-24T05:39:42.733Z,30.55
2023-05-24T05:42:18.812Z,30.61
2023-05-24T05:44:49.164Z,30.65
2023-05-24T05:47:22.452Z,30.70
2023-05-24T05:49:52.860Z,30.75
2023-05-24T05:52:23.116Z,30.80
2023-05-24T05:54:53.738Z,30.86
2023-05-24T05:57:25.014Z,30.91
2023-05-24T05:59:54.950Z,30.96
2023-05-24T06:02:27.838Z,31.02
2023-05-24T06:04:58.904Z,31.07
2023-05-24T06:07:29.357Z,31.12
2023-05-24T06:09:59.414Z,31.17
2023-05-24T06:12:31.657Z,31.23
2023-05-24T06:15:01.786Z,31.29
2023-05-24T06:17:35.036Z,31.33
2023-05-24T06:20:12.387Z,31.37
2023-05-24T06:22:43.331Z,31.42
2023-05-24T06:25:15.095Z,31.47
2023-05-24T06:27:45.509Z,31.52
2023-05-24T06:30:16.949Z,31.57
2023-05-24T06:32:49.687Z,31.64
2023-05-24T06:35:22.419Z,31.68
2023-05-24T06:37:53.087Z,31.74
2023-05-24T06:40:23.404Z,31.79
2023-05-24T06:42:53.753Z,31.85
2023-05-24T06:45:24.243Z,31.90
2023-05-24T06:47:56.297Z,31.95
2023-05-24T06:50:26.931Z,32.00
2023-05-24T06:52:57.489Z,32.05
2023-05-24T06:55:27.827Z,32.10
2023-05-24T06:57:58.164Z,32.15
2023-05-24T07:00:28.628Z,32.20
2023-05-24T07:03:01.681Z,32.25
2023-05-24T07:05:32.596Z,32.27
2023-05-24T07:08:03.123Z,32.31
2023-05-24T07:10:33.579Z,32.36
2023-05-24T07:13:04.416Z,32.38
2023-05-24T07:15:34.767Z,32.42
2023-05-24T07:18:07.719Z,32.46
2023-05-24T07:20:38.325Z,32.52
2023-05-24T07:23:09.127Z,32.58
2023-05-24T07:25:39.332Z,32.62
2023-05-24T07:28:09.193Z,32.68
2023-05-24T07:30:39.801Z,32.71
2023-05-24T07:33:12.015Z,32.75
2023-05-24T07:35:42.236Z,32.78
2023-05-24T07:38:13.034Z,32.81
2023-05-24T07:40:43.661Z,32.83
2023-05-24T07:43:14.405Z,32.88
2023-05-24T07:45:44.906Z,32.92
2023-05-24T07:48:17.437Z,32.95
2023-05-24T07:50:49.309Z,32.96
2023-05-24T07:53:19.976Z,33.00
2023-05-24T07:55:51.284Z,33.03
2023-05-24T07:58:21.631Z,33.07
2023-05-24T08:00:52.100Z,33.09
2023-05-24T08:03:25.689Z,33.11
2023-05-24T08:05:56.359Z,33.14
2023-05-24T08:08:26.327Z,33.15
2023-05-24T08:10:56.340Z,33.18
2023-05-24T08:13:27.003Z,33.21
2023-05-24T08:15:58.879Z,33.24
2023-05-24T08:18:45.563Z,33.25
2023-05-24T08:21:16.860Z,33.26
2023-05-24T08:23:47.939Z,33.29
2023-05-24T08:26:19.692Z,33.32
2023-05-24T08:28:49.925Z,33.34
2023-05-24T08:31:20.297Z,33.36
2023-05-24T08:33:53.428Z,33.38
2023-05-24T08:36:23.798Z,33.40
2023-05-24T08:38:54.278Z,33.42
2023-05-24T08:41:24.722Z,33.45
2023-05-24T08:43:56.234Z,33.47
2023-05-24T08:46:27.420Z,33.48
2023-05-24T08:49:03.884Z,33.52
2023-05-24T08:51:34.586Z,33.53
2023-05-24T08:54:07.487Z,33.55
2023-05-24T08:56:39.679Z,33.59
2023-05-24T08:59:11.868Z,33.62
2023-05-24T09:01:44.484Z,33.65
2023-05-24T09:04:17.191Z,33.67
2023-05-24T09:06:48.591Z,33.67
2023-05-24T09:09:24.034Z,33.68
2023-05-24T09:11:58.846Z,33.69
2023-05-24T09:14:30.134Z,33.70
2023-05-24T09:17:01.619Z,33.69
2023-05-24T09:19:33.479Z,33.67
2023-05-24T09:22:04.075Z,33.66
2023-05-24T09:24:51.546Z,33.67
2023-05-24T09:27:24.719Z,33.65
2023-05-24T09:29:55.671Z,33.64
2023-05-24T09:32:26.501Z,33.66
2023-05-24T09:35:01.729Z,33.68
2023-05-24T09:37:34.043Z,33.69
2023-05-24T09:40:07.361Z,33.70
2023-05-24T09:42:37.977Z,33.72
2023-05-24T09:45:11.065Z,33.73
2023-05-24T09:47:43.064Z,33.73
2023-05-24T09:50:19.773Z,33.73
2023-05-24T09:52:50.665Z,33.72
2023-05-24T09:55:22.935Z,33.72
2023-05-24T09:58:05.414Z,33.73
2023-05-24T10:00:40.325Z,33.72
2023-05-24T10:03:18.209Z,33.73
2023-05-24T10:05:52.214Z,33.72
2023-05-24T10:08:37.051Z,33.72
2023-05-24T10:11:09.255Z,33.72
2023-05-24T10:13:40.389Z,33.72
2023-05-24T10:16:11.951Z,33.72
2023-05-24T10:18:42.399Z,33.71
2023-05-24T10:21:15.829Z,33.71
2023-05-24T10:23:53.186Z,33.70
2023-05-24T10:26:27.846Z,33.70
2023-05-24T10:29:07.286Z,33.69
2023-05-24T10:31:43.865Z,33.67
2023-05-24T10:34:15.006Z,33.67
2023-05-24T10:36:48.703Z,33.66
2023-05-24T10:39:22.547Z,33.64
2023-05-24T10:41:53.194Z,33.63
2023-05-24T10:44:24.665Z,33.62
2023-05-24T10:47:17.823Z,33.63
2023-05-24T10:49:55.699Z,33.62
2023-05-24T10:52:37.839Z,33.63
2023-05-24T10:55:11.461Z,33.62
2023-05-24T10:57:43.754Z,33.62
2023-05-24T11:00:36.324Z,33.63
2023-05-24T11:03:11.325Z,33.62
2023-05-24T11:05:55.557Z,33.62
2023-05-24T11:08:38.500Z,33.62
2023-05-24T11:13:51.541Z,33.63
2023-05-24T11:16:39.547Z,33.62
2023-05-24T11:19:24.446Z,33.62
2023-05-24T11:21:59.368Z,33.63
2023-05-24T11:24:32.906Z,33.64
2023-05-24T11:27:04.870Z,33.64
2023-05-24T11:29:36.846Z,33.62
2023-05-24T11:32:10.270Z,33.62
2023-05-24T11:34:45.639Z,33.62
2023-05-24T11:37:17.999Z,33.61
2023-05-24T11:39:54.926Z,33.60
2023-05-24T11:42:27.084Z,33.59
2023-05-24T11:44:58.057Z,33.56
2023-05-24T11:47:28.801Z,33.54
2023-05-24T11:50:00.155Z,33.54
2023-05-24T11:52:33.200Z,33.51
2023-05-24T11:55:08.984Z,33.52
2023-05-24T11:57:46.021Z,33.52
2023-05-24T12:00:27.816Z,33.52
2023-05-24T12:03:05.560Z,33.51
2023-05-24T12:05:37.289Z,33.51
2023-05-24T12:08:12.422Z,33.52
2023-05-24T12:10:46.213Z,33.51
2023-05-24T12:13:25.818Z,33.52
2023-05-24T12:15:58.620Z,33.52
2023-05-24T12:18:33.802Z,33.51
2023-05-24T12:21:04.031Z,33.51
2023-05-24T12:23:40.364Z,33.52
2023-05-24T12:26:18.005Z,33.53
2023-05-24T12:28:49.852Z,33.52
2023-05-24T12:31:21.075Z,33.53
2023-05-24T12:33:54.200Z,33.53
2023-05-24T12:36:25.523Z,33.54
2023-05-24T12:39:01.037Z,33.53
2023-05-24T12:41:36.995Z,33.53
2023-05-24T12:44:08.507Z,33.52
2023-05-24T12:46:39.599Z,33.54
2023-05-24T12:49:10.046Z,33.54
2023-05-24T12:51:40.178Z,33.54
2023-05-24T12:54:10.949Z,33.54
2023-05-24T12:56:43.506Z,33.53
2023-05-24T12:59:14.912Z,33.52
2023-05-24T13:01:52.297Z,33.50
2023-05-24T13:04:27.934Z,33.48
2023-05-24T13:07:00.604Z,33.46
2023-05-24T13:09:30.809Z,33.45
2023-05-24T13:12:03.477Z,33.44
2023-05-24T13:14:34.758Z,33.44
2023-05-24T13:17:07.448Z,33.42
2023-05-24T13:19:38.195Z,33.42
2023-05-24T13:22:11.505Z,33.42
2023-05-24T13:24:45.940Z,33.40
2023-05-24T13:27:52.170Z,33.39
2023-05-24T13:30:52.670Z,33.35
2023-05-24T13:33:38.119Z,33.36
2023-05-24T13:37:15.847Z,33.32
2023-05-24T13:39:52.659Z,33.29
2023-05-24T13:42:28.475Z,33.28
2023-05-24T13:45:01.773Z,33.25
2023-05-24T13:47:40.412Z,33.25
2023-05-24T13:50:12.767Z,33.25
2023-05-24T13:52:46.195Z,33.24
2023-05-24T13:55:16.096Z,33.22
2023-05-24T13:57:52.505Z,33.22
2023-05-24T14:00:24.451Z,33.19
2023-05-24T14:02:58.578Z,33.19
2023-05-24T14:05:31.174Z,33.16
2023-05-24T14:08:07.238Z,33.14
2023-05-24T14:10:47.033Z,33.11
2023-05-24T14:13:55.692Z,33.09
2023-05-24T14:16:18.628Z,33.06
2023-05-24T14:18:52.397Z,33.04
2023-05-24T14:21:27.775Z,33.03
2023-05-24T14:24:05.413Z,33.02
2023-05-24T14:26:37.911Z,33.00
2023-05-24T14:29:11.776Z,33.00
2023-05-24T14:31:44.306Z,32.97
2023-05-24T14:34:17.692Z,32.97
2023-05-24T14:36:49.189Z,32.95
2023-05-24T14:39:19.627Z,32.95
2023-05-24T14:42:03.861Z,32.95
2023-05-24T14:44:37.672Z,32.93
2023-05-24T14:47:08.825Z,32.92
2023-05-24T14:49:39.588Z,32.91
2023-05-24T14:52:21.129Z,32.90
2023-05-24T14:54:53.322Z,32.88
2023-05-24T14:57:25.664Z,32.89
2023-05-24T15:00:01.143Z,32.88
2023-05-24T15:02:31.886Z,32.87
2023-05-24T15:05:02.710Z,32.85
2023-05-24T15:07:33.315Z,32.85
2023-05-24T15:10:04.025Z,32.83
2023-05-24T15:12:34.685Z,32.83
2023-05-24T15:15:09.610Z,32.82
2023-05-24T15:17:42.975Z,32.82
2023-05-24T15:20:14.324Z,32.79
2023-05-24T15:22:44.275Z,32.78
2023-05-24T15:25:14.202Z,32.77
2023-05-24T15:27:44.913Z,32.76
2023-05-24T15:30:17.905Z,32.75
2023-05-24T15:32:47.826Z,32.74
2023-05-24T15:35:19.269Z,32.71
2023-05-24T15:37:49.241Z,32.70
2023-05-24T15:40:20.463Z,32.67
2023-05-24T15:42:53.179Z,32.66
2023-05-24T15:45:27.026Z,32.63
2023-05-24T15:48:07.440Z,32.61
2023-05-24T15:59:10.731Z,32.45
2023-05-24T16:05:09.217Z,32.41
2023-05-24T16:07:41.346Z,32.39
2023-05-24T16:10:12.226Z,32.36
2023-05-24T16:12:45.538Z,32.33
2023-05-24T16:15:26.944Z,32.29
2023-05-24T16:17:59.220Z,32.26
2023-05-24T16:20:29.348Z,32.25
2023-05-24T16:23:01.068Z,32.24
2023-05-24T16:25:34.215Z,32.20
2023-05-24T16:28:04.399Z,32.19
2023-05-24T16:30:35.048Z,32.18
2023-05-24T16:33:10.583Z,32.16
2023-05-24T16:35:41.350Z,32.15
2023-05-24T16:38:11.340Z,32.13
2023-05-24T16:40:42.299Z,32.12
2023-05-24T16:43:13.033Z,32.11
2023-05-24T16:45:43.284Z,32.09
2023-05-24T16:48:15.441Z,32.07
2023-05-24T16:50:46.114Z,32.05
2023-05-24T16:53:16.644Z,32.03
2023-05-24T16:55:46.546Z,32.01
2023-05-24T16:58:17.128Z,31.99
2023-05-24T17:00:47.494Z,31.95
2023-05-24T17:03:22.310Z,31.91
2023-05-24T17:05:53.560Z,31.87
2023-05-24T17:08:24.118Z,31.86
2023-05-24T17:11:05.327Z,31.83
2023-05-24T17:13:36.538Z,31.80
2023-05-24T17:16:08.747Z,31.80
2023-05-24T17:18:41.348Z,31.78
2023-05-24T17:21:11.888Z,31.76
2023-05-24T17:23:42.835Z,31.76
2023-05-24T17:26:16.223Z,31.73
2023-05-24T17:28:51.254Z,31.72
2023-05-24T17:31:22.531Z,31.70
2023-05-24T17:33:54.971Z,31.69
2023-05-24T17:36:34.216Z,31.66
2023-05-24T17:39:11.640Z,31.63
2023-05-24T17:41:42.477Z,31.61
2023-05-24T17:44:13.363Z,31.58
2023-05-24T17:46:44.218Z,31.58
2023-05-24T17:49:16.984Z,31.56
2023-05-24T17:51:47.154Z,31.53
2023-05-24T17:54:17.660Z,31.49
2023-05-24T17:56:48.386Z,31.46
2023-05-24T17:59:21.185Z,31.43
2023-05-24T18:01:52.193Z,31.41
2023-05-24T18:04:24.436Z,31.39
2023-05-24T18:06:55.005Z,31.38
2023-05-24T18:09:25.948Z,31.37
2023-05-24T18:11:59.265Z,31.34
2023-05-24T18:14:34.755Z,31.32
2023-05-24T18:17:14.315Z,31.30
2023-05-24T18:19:53.961Z,31.29
2023-05-24T18:22:24.835Z,31.27
2023-05-24T18:24:55.412Z,31.25
2023-05-24T18:27:27.091Z,31.23
2023-05-24T18:29:57.281Z,31.20
2023-05-24T18:32:28.049Z,31.19
2023-05-24T18:35:00.314Z,31.19
2023-05-24T18:37:30.436Z,31.17
2023-05-24T18:40:01.271Z,31.16
2023-05-24T18:42:31.992Z,31.14
2023-05-24T18:45:02.395Z,31.13
2023-05-24T18:47:33.605Z,31.10
2023-05-24T18:50:08.317Z,31.09
2023-05-24T18:52:38.858Z,31.08
2023-05-24T18:55:13.012Z,31.06
2023-05-24T18:57:43.266Z,31.04
2023-05-24T19:00:15.663Z,31.03
2023-05-24T19:02:46.261Z,31.02
2023-05-24T19:05:20.445Z,30.99
2023-05-24T19:07:51.429Z,30.97
2023-05-24T19:10:21.536Z,30.95
2023-05-24T19:12:55.185Z,30.92
2023-05-24T19:15:26.577Z,30.89
2023-05-24T19:17:58.392Z,30.87
2023-05-24T19:20:30.351Z,30.85
2023-05-24T19:23:01.877Z,30.85
2023-05-24T19:25:32.308Z,30.85
2023-05-24T19:28:02.099Z,30.84
2023-05-24T19:30:34.402Z,30.84
2023-05-24T19:33:05.206Z,30.84
2023-05-24T19:35:37.778Z,30.84
2023-05-24T19:38:09.243Z,30.83
2023-05-24T19:40:39.662Z,30.83
2023-05-24T19:43:09.848Z,30.83
2023-05-24T19:45:40.393Z,30.83
2023-05-24T19:48:11.305Z,30.82
2023-05-24T19:50:44.750Z,30.81
2023-05-24T19:53:18.105Z,30.81
2023-05-24T19:55:48.078Z,30.81
2023-05-24T19:58:18.740Z,30.80
2023-05-24T20:00:49.177Z,30.79
2023-05-24T20:03:19.510Z,30.78
2023-05-24T20:05:51.845Z,30.78
2023-05-24T20:08:27.216Z,30.77
2023-05-24T20:10:57.766Z,30.76
2023-05-24T20:13:28.037Z,30.76
2023-05-24T20:15:58.616Z,30.75
2023-05-24T20:18:29.069Z,30.74
2023-05-24T20:21:01.658Z,30.73
2023-05-24T20:23:32.322Z,30.73
2023-05-24T20:26:03.619Z,30.72
2023-05-24T20:28:34.180Z,30.71
2023-05-24T20:31:04.638Z,30.70
2023-05-24T20:34:01.416Z,30.70
2023-05-24T20:36:34.797Z,30.69
2023-05-24T20:39:05.241Z,30.67
2023-05-24T20:41:35.557Z,30.67
2023-05-24T20:44:05.437Z,30.65
2023-05-24T20:46:37.059Z,30.65
2023-05-24T20:49:07.856Z,30.64
2023-05-24T20:51:40.415Z,30.64
2023-05-24T20:54:12.398Z,30.64
2023-05-24T20:56:43.442Z,30.62
2023-05-24T20:59:13.860Z,30.61
2023-05-24T21:01:44.586Z,30.60
2023-05-24T21:04:14.866Z,30.59
2023-05-24T21:06:47.182Z,30.59
2023-05-24T21:09:17.323Z,30.58
2023-05-24T21:11:47.813Z,30.57
2023-05-24T21:14:18.849Z,30.57
2023-05-24T21:16:49.531Z,30.56
2023-05-24T21:19:20.115Z,30.56
2023-05-24T21:21:52.893Z,30.55
2023-05-24T21:24:23.293Z,30.54
2023-05-24T21:26:54.212Z,30.53
2023-05-24T21:29:24.068Z,30.52
2023-05-24T21:31:54.185Z,30.52
2023-05-24T21:34:24.477Z,30.50
2023-05-24T21:36:56.901Z,30.51
2023-05-24T21:39:27.251Z,30.50
2023-05-24T21:41:57.770Z,30.49
2023-05-24T21:44:28.446Z,30.49
2023-05-24T21:46:59.520Z,30.48
2023-05-24T21:49:29.805Z,30.48
2023-05-24T21:52:02.526Z,30.47
2023-05-24T21:54:33.064Z,30.46
2023-05-24T21:57:04.182Z,30.46
2023-05-24T21:59:34.420Z,30.45
2023-05-24T22:02:05.356Z,30.44
2023-05-24T22:04:36.459Z,30.43
2023-05-24T22:07:09.162Z,30.42
2023-05-24T22:09:39.719Z,30.41
2023-05-24T22:12:10.674Z,30.42
2023-05-24T22:14:40.787Z,30.41
2023-05-24T22:17:11.762Z,30.41
2023-05-24T22:19:42.236Z,30.41
2023-05-24T22:22:15.856Z,30.40
2023-05-24T22:24:47.570Z,30.38
2023-05-24T22:27:18.920Z,30.36
2023-05-24T22:29:49.212Z,30.37
2023-05-24T22:32:19.866Z,30.35
2023-05-24T22:34:50.445Z,30.34
2023-05-24T22:37:22.724Z,30.33
2023-05-24T22:39:53.307Z,30.32
2023-05-24T22:42:23.597Z,30.32
2023-05-24T22:44:54.104Z,30.31
2023-05-24T22:47:25.285Z,30.31
2023-05-24T22:49:56.140Z,30.28
2023-05-24T22:52:28.760Z,30.28
2023-05-24T22:54:59.649Z,30.26
2023-05-24T22:57:30.472Z,30.24
2023-05-24T23:00:00.594Z,30.20
2023-05-24T23:02:32.106Z,30.15
2023-05-24T23:05:04.712Z,30.09
2023-05-24T23:07:37.894Z,30.05
2023-05-24T23:10:10.594Z,30.01
2023-05-24T23:12:42.837Z,29.98
2023-05-24T23:15:18.943Z,29.96
2023-05-24T23:17:52.846Z,29.94
2023-05-24T23:20:23.770Z,29.92
2023-05-24T23:22:56.429Z,29.89
2023-05-24T23:25:26.713Z,29.87
2023-05-24T23:27:57.335Z,29.87
2023-05-24T23:30:27.708Z,29.85
2023-05-24T23:32:58.323Z,29.85
2023-05-24T23:35:28.767Z,29.83
2023-05-24T23:38:00.208Z,29.78
2023-05-24T23:40:30.517Z,29.74
2023-05-24T23:43:01.231Z,29.72
2023-05-24T23:45:31.629Z,29.71
2023-05-24T23:48:02.566Z,29.71
2023-05-24T23:50:39.912Z,29.69
2023-05-24T23:53:15.880Z,29.67
2023-05-24T23:55:48.967Z,29.67
2023-05-24T23:58:19.214Z,29.67
